EGPE/INV METAR and TAF weather

Enter ICAO airport designator
Station Type Date Time Source
EGPE METAR 2019/12/06 03:50 UTC NOAA

EGPE 060350Z 22008KT 9999 SCT032 BKN040 10/08 Q0989 RERA


Station Type Date Time Source
EGPE Decoded METAR 2019/12/06 03:50 UTC NOAA

Inverness / Dalcross, United Kingdom (EGPE) 57-32N 004-03W 0M
Dec 05, 2019 - 10:50 PM EST / 2019.12.06 0350 UTC
Wind: from the SW (220 degrees) at 9 MPH (8 KT):0
Visibility: greater than 7 mile(s):0
Sky conditions: mostly cloudy
Temperature: 50 F (10 C)
Dew Point: 46 F (8 C)
Relative Humidity: 87%
Pressure (altimeter): 29.21 in. Hg (0989 hPa)
ob: EGPE 060350Z 22008KT 9999 SCT032 BKN040 10/08 Q0989 RERA
cycle: 4

Station Type Date Time Source
EGPE TAF UTC NOAA

Error!

Example: see airport list